sensor_id;sensor_type;location;lat;lon;timestamp;pressure;altitude;pressure_sealevel;temperature;humidity
45939;BME280;31650;48.818;9.116;2023-04-28T00:05:31;97741.81;;;10.99;81.46
45939;BME280;31650;48.818;9.116;2023-04-28T00:20:31;97724.72;;;11.10;81.36
45939;BME280;31650;48.818;9.116;2023-04-28T00:35:32;97714.84;;;10.97;84.83
45939;BME280;31650;48.818;9.116;2023-04-28T00:50:32;97708.97;;;10.82;88.92
45939;BME280;31650;48.818;9.116;2023-04-28T01:05:32;97690.63;;;10.77;88.77
45939;BME280;31650;48.818;9.116;2023-04-28T01:20:33;97672.34;;;11.15;84.22
45939;BME280;31650;48.818;9.116;2023-04-28T01:35:34;97669.56;;;11.33;83.07
45939;BME280;31650;48.818;9.116;2023-04-28T01:50:34;97653.22;;;11.21;89.27
45939;BME280;31650;48.818;9.116;2023-04-28T02:05:34;97641.72;;;10.89;94.23
45939;BME280;31650;48.818;9.116;2023-04-28T02:20:35;97638.59;;;11.04;96.76
45939;BME280;31650;48.818;9.116;2023-04-28T02:35:36;97614.09;;;10.92;97.06
45939;BME280;31650;48.818;9.116;2023-04-28T02:50:36;97629.50;;;11.10;100.00
45939;BME280;31650;48.818;9.116;2023-04-28T03:05:36;97652.44;;;11.02;100.00
45939;BME280;31650;48.818;9.116;2023-04-28T03:20:36;97644.66;;;10.57;100.00
45939;BME280;31650;48.818;9.116;2023-04-28T03:35:36;97632.63;;;10.65;100.00
45939;BME280;31650;48.818;9.116;2023-04-28T03:50:37;97619.91;;;10.47;100.00
45939;BME280;31650;48.818;9.116;2023-04-28T04:05:39;97613.19;;;10.50;100.00
45939;BME280;31650;48.818;9.116;2023-04-28T04:20:40;97593.72;;;10.83;100.00
45939;BME280;31650;48.818;9.116;2023-04-28T04:35:40;97597.50;;;11.24;100.00
45939;BME280;31650;48.818;9.116;2023-04-28T04:50:40;97596.69;;;11.23;100.00
45939;BME280;31650;48.818;9.116;2023-04-28T05:05:41;97606.53;;;11.06;100.00
45939;BME280;31650;48.818;9.116;2023-04-28T05:20:42;97622.25;;;10.92;100.00
45939;BME280;31650;48.818;9.116;2023-04-28T05:35:42;97622.13;;;10.99;100.00
45939;BME280;31650;48.818;9.116;2023-04-28T05:50:42;97619.88;;;11.26;100.00
45939;BME280;31650;48.818;9.116;2023-04-28T06:05:42;97611.84;;;11.43;100.00
45939;BME280;31650;48.818;9.116;2023-04-28T06:20:42;97618.00;;;11.50;100.00
45939;BME280;31650;48.818;9.116;2023-04-28T06:35:43;97613.75;;;11.54;100.00
45939;BME280;31650;48.818;9.116;2023-04-28T06:50:43;97605.47;;;11.72;100.00
45939;BME280;31650;48.818;9.116;2023-04-28T07:05:43;97598.13;;;11.73;100.00
45939;BME280;31650;48.818;9.116;2023-04-28T07:20:43;97577.44;;;11.96;100.00
45939;BME280;31650;48.818;9.116;2023-04-28T07:35:44;97572.41;;;12.16;100.00
45939;BME280;31650;48.818;9.116;2023-04-28T07:50:44;97578.78;;;12.22;100.00
45939;BME280;31650;48.818;9.116;2023-04-28T08:05:44;97618.25;;;12.19;100.00
45939;BME280;31650;48.818;9.116;2023-04-28T08:20:44;97656.28;;;12.14;100.00
45939;BME280;31650;48.818;9.116;2023-04-28T08:35:46;97649.88;;;11.85;100.00
45939;BME280;31650;48.818;9.116;2023-04-28T08:50:48;97681.63;;;12.26;100.00
45939;BME280;31650;48.818;9.116;2023-04-28T09:05:49;97682.75;;;12.77;100.00
45939;BME280;31650;48.818;9.116;2023-04-28T09:20:49;97687.66;;;13.04;100.00
45939;BME280;31650;48.818;9.116;2023-04-28T09:35:49;97681.78;;;13.70;100.00
45939;BME280;31650;48.818;9.116;2023-04-28T09:50:50;97675.31;;;14.10;100.00
45939;BME280;31650;48.818;9.116;2023-04-28T10:05:52;97663.41;;;16.17;100.00
45939;BME280;31650;48.818;9.116;2023-04-28T10:20:59;97642.03;;;16.72;100.00
45939;BME280;31650;48.818;9.116;2023-04-28T10:36:02;97615.59;;;17.29;100.00
45939;BME280;31650;48.818;9.116;2023-04-28T11:21:24;97641.03;;;16.89;100.00
45939;BME280;31650;48.818;9.116;2023-04-28T11:36:25;97620.97;;;16.83;100.00
45939;BME280;31650;48.818;9.116;2023-04-28T11:51:33;97597.75;;;17.42;100.00
45939;BME280;31650;48.818;9.116;2023-04-28T12:06:34;97595.81;;;17.53;100.00
45939;BME280;31650;48.818;9.116;2023-04-28T12:21:34;97584.84;;;18.04;100.00
45939;BME280;31650;48.818;9.116;2023-04-28T12:36:34;97606.00;;;17.47;100.00
45939;BME280;31650;48.818;9.116;2023-04-28T12:51:35;97667.00;;;15.86;100.00
45939;BME280;31650;48.818;9.116;2023-04-28T13:06:35;97630.19;;;16.67;100.00
45939;BME280;31650;48.818;9.116;2023-04-28T13:21:35;97610.97;;;17.81;100.00
45939;BME280;31650;48.818;9.116;2023-04-28T13:36:36;97586.19;;;18.12;100.00
45939;BME280;31650;48.818;9.116;2023-04-28T13:51:37;97614.88;;;16.76;100.00
45939;BME280;31650;48.818;9.116;2023-04-28T14:06:38;97627.06;;;15.95;100.00
45939;BME280;31650;48.818;9.116;2023-04-28T14:21:39;97626.63;;;15.71;100.00
45939;BME280;31650;48.818;9.116;2023-04-28T14:36:39;97602.88;;;15.54;100.00
45939;BME280;31650;48.818;9.116;2023-04-28T14:51:41;97596.16;;;16.57;100.00
45939;BME280;31650;48.818;9.116;2023-04-28T15:06:41;97587.34;;;15.97;100.00
45939;BME280;31650;48.818;9.116;2023-04-28T15:21:41;97586.44;;;16.34;100.00
45939;BME280;31650;48.818;9.116;2023-04-28T15:36:42;97570.59;;;15.99;100.00
45939;BME280;31650;48.818;9.116;2023-04-28T15:51:42;97568.00;;;15.77;100.00
45939;BME280;31650;48.818;9.116;2023-04-28T16:06:42;97541.84;;;15.64;100.00
45939;BME280;31650;48.818;9.116;2023-04-28T16:21:43;97576.41;;;14.79;100.00
45939;BME280;31650;48.818;9.116;2023-04-28T16:36:43;97564.91;;;14.33;100.00
45939;BME280;31650;48.818;9.116;2023-04-28T17:06:56;97569.09;;;15.11;100.00
45939;BME280;31650;48.818;9.116;2023-04-28T17:21:57;97567.66;;;15.04;100.00
45939;BME280;31650;48.818;9.116;2023-04-28T17:36:58;97574.84;;;15.15;100.00
45939;BME280;31650;48.818;9.116;2023-04-28T17:51:58;97570.78;;;14.90;100.00
45939;BME280;31650;48.818;9.116;2023-04-28T18:07:00;97574.06;;;14.43;100.00
45939;BME280;31650;48.818;9.116;2023-04-28T18:22:01;97599.72;;;13.81;100.00
45939;BME280;31650;48.818;9.116;2023-04-28T18:37:01;97604.13;;;13.32;100.00
45939;BME280;31650;48.818;9.116;2023-04-28T18:52:01;97616.44;;;13.06;100.00
45939;BME280;31650;48.818;9.116;2023-04-28T19:07:02;97628.81;;;12.79;100.00
45939;BME280;31650;48.818;9.116;2023-04-28T19:22:02;97642.22;;;12.69;100.00
45939;BME280;31650;48.818;9.116;2023-04-28T19:37:02;97646.88;;;12.57;100.00
45939;BME280;31650;48.818;9.116;2023-04-28T19:52:03;97652.81;;;12.94;100.00
45939;BME280;31650;48.818;9.116;2023-04-28T20:07:04;97662.44;;;12.33;100.00
45939;BME280;31650;48.818;9.116;2023-04-28T20:22:05;97670.38;;;12.46;100.00
45939;BME280;31650;48.818;9.116;2023-04-28T20:37:05;97665.56;;;12.13;100.00
45939;BME280;31650;48.818;9.116;2023-04-28T20:52:07;97658.44;;;11.88;100.00
45939;BME280;31650;48.818;9.116;2023-04-28T21:07:07;97676.94;;;12.10;100.00
45939;BME280;31650;48.818;9.116;2023-04-28T21:22:07;97682.94;;;12.24;100.00
45939;BME280;31650;48.818;9.116;2023-04-28T21:37:07;97672.91;;;12.01;100.00
45939;BME280;31650;48.818;9.116;2023-04-28T21:52:07;97675.41;;;11.48;100.00
45939;BME280;31650;48.818;9.116;2023-04-28T22:07:08;97673.41;;;11.14;100.00
45939;BME280;31650;48.818;9.116;2023-04-28T22:22:08;97670.09;;;11.12;100.00
45939;BME280;31650;48.818;9.116;2023-04-28T22:37:09;97670.47;;;10.66;100.00
45939;BME280;31650;48.818;9.116;2023-04-28T22:52:10;97660.13;;;10.75;100.00
45939;BME280;31650;48.818;9.116;2023-04-28T23:07:11;97658.69;;;11.33;100.00
45939;BME280;31650;48.818;9.116;2023-04-28T23:22:11;97661.91;;;11.54;100.00
45939;BME280;31650;48.818;9.116;2023-04-28T23:37:11;97663.97;;;11.82;100.00
45939;BME280;31650;48.818;9.116;2023-04-28T23:52:12;97652.28;;;12.05;100.00
